Time;durP1;ratioP1;P1;durP2;ratioP2;P2;SDS_P1;SDS_P2;PMS_P1;PMS_P2;Temp;Humidity;BMP_temperature;BMP_pressure;BME280_temperature;BME280_humidity;BME280_pressure;Samples;Min_cycle;Max_cycle;Signal;HPM_P1;HPM_P2
2022/10/07 00:01:05;;;;;;;2.00;1.05;;;20.20;62.20;;;;;;5107046;27;43451;-57
2022/10/07 00:03:33;;;;;;;1.48;1.00;;;20.20;62.30;;;;;;5119266;27;43398;-56
2022/10/07 00:06:06;;;;;;;1.25;0.88;;;20.20;62.40;;;;;;5115547;27;43558;-57
2022/10/07 00:08:35;;;;;;;2.13;1.10;;;20.20;62.40;;;;;;5105604;27;44918;-57
2022/10/07 00:11:05;;;;;;;2.20;1.00;;;20.20;62.40;;;;;;5107542;27;43469;-57
2022/10/07 00:13:35;;;;;;;1.97;1.20;;;20.20;62.40;;;;;;5108649;27;43485;-57
2022/10/07 00:16:08;;;;;;;2.08;1.00;;;20.10;62.30;;;;;;5106237;27;43629;-57
2022/10/07 00:18:36;;;;;;;1.98;1.00;;;20.20;62.40;;;;;;5110266;27;43835;-57
2022/10/07 00:21:06;;;;;;;1.60;1.20;;;20.20;62.40;;;;;;5111060;27;43483;-57
2022/10/07 00:23:34;;;;;;;1.58;0.88;;;20.20;62.50;;;;;;5109905;27;43421;-57
2022/10/07 00:26:04;;;;;;;1.00;0.90;;;20.10;62.40;;;;;;5110013;27;44159;-56
2022/10/07 00:28:33;;;;;;;1.38;0.80;;;20.10;62.30;;;;;;5109712;27;45060;-56
2022/10/07 00:31:04;;;;;;;1.88;0.95;;;20.10;62.40;;;;;;5113011;27;43407;-57
2022/10/07 00:33:33;;;;;;;;;;;20.10;62.40;;;;;;5116538;27;43378;-57
2022/10/07 00:36:00;;;;;;;0.93;0.75;;;20.10;62.50;;;;;;5095186;27;43494;-56
2022/10/07 00:38:27;;;;;;;2.05;0.90;;;20.10;62.60;;;;;;5091489;27;43969;-57
2022/10/07 00:40:55;;;;;;;2.72;1.27;;;20.00;62.40;;;;;;5110695;27;44357;-56
2022/10/07 00:43:30;;;;;;;1.08;0.90;;;20.00;62.40;;;;;;5119049;27;43451;-57
2022/10/07 00:46:20;;;;;;;1.58;0.95;;;20.10;62.50;;;;;;5109195;27;43576;-57
2022/10/07 00:48:48;;;;;;;2.67;1.05;;;20.00;62.50;;;;;;5110283;27;43794;-56
2022/10/07 00:51:17;;;;;;;1.02;0.93;;;20.00;62.50;;;;;;5109194;27;43435;-57
2022/10/07 00:53:48;;;;;;;1.88;1.27;;;20.00;62.40;;;;;;5091735;27;43751;-57
2022/10/07 00:56:16;;;;;;;1.08;0.98;;;20.00;62.50;;;;;;5110549;27;43534;-57
2022/10/07 00:58:46;;;;;;;1.48;1.10;;;20.00;62.50;;;;;;5111969;27;43825;-57
2022/10/07 01:01:15;;;;;;;1.90;0.98;;;20.00;62.50;;;;;;5109697;27;44065;-57
2022/10/07 01:03:44;;;;;;;1.58;1.00;;;20.00;62.60;;;;;;5109797;27;43449;-57
2022/10/07 01:06:12;;;;;;;1.73;1.10;;;20.00;62.60;;;;;;5092055;27;43442;-57
2022/10/07 01:08:41;;;;;;;1.00;0.90;;;20.00;62.60;;;;;;5111072;27;44069;-57
2022/10/07 01:11:17;;;;;;;1.52;1.00;;;20.00;62.50;;;;;;5091603;27;44075;-57
2022/10/07 01:14:00;;;;;;;1.50;0.93;;;20.00;62.50;;;;;;5090197;27;43422;-57
2022/10/07 01:16:29;;;;;;;1.27;1.13;;;20.00;62.60;;;;;;5114571;27;43502;-57
2022/10/07 01:19:25;;;;;;;1.83;1.00;;;19.90;62.60;;;;;;5114307;27;43795;-57
2022/10/07 01:22:08;;;;;;;1.55;0.98;;;20.00;62.60;;;;;;5113048;27;43400;-57
2022/10/07 01:25:02;;;;;;;1.63;0.90;;;19.90;62.50;;;;;;5109488;27;43759;-57
2022/10/07 01:27:31;;;;;;;1.35;0.90;;;19.90;62.50;;;;;;5108058;27;43418;-56
2022/10/07 01:30:04;;;;;;;3.28;1.23;;;19.90;62.60;;;;;;5092917;27;44096;-56
2022/10/07 01:32:55;;;;;;;2.45;1.10;;;19.90;62.60;;;;;;5090700;27;43425;-57
2022/10/07 01:35:26;;;;;;;2.55;1.10;;;19.90;62.60;;;;;;5109084;27;43934;-57
2022/10/07 01:37:59;;;;;;;1.55;1.10;;;19.90;62.60;;;;;;5094745;27;43505;-56
2022/10/07 01:40:44;;;;;;;1.58;1.15;;;19.90;62.60;;;;;;5103532;27;43988;-56
2022/10/07 01:43:14;;;;;;;2.38;1.20;;;19.80;62.60;;;;;;5092406;27;43984;-57
2022/10/07 01:45:42;;;;;;;1.48;1.00;;;19.90;62.60;;;;;;5110853;27;43504;-57
2022/10/07 01:48:10;;;;;;;1.15;0.90;;;19.80;62.50;;;;;;5108588;27;43593;-56
2022/10/07 01:50:38;;;;;;;1.70;1.10;;;19.90;62.60;;;;;;5090531;27;44943;-57
2022/10/07 01:53:48;;;;;;;2.20;1.10;;;19.80;62.60;;;;;;5110392;27;43420;-57
2022/10/07 01:56:59;;;;;;;1.83;1.05;;;19.90;62.50;;;;;;5109018;27;43444;-57
2022/10/07 01:59:51;;;;;;;1.58;1.00;;;19.80;62.60;;;;;;5111612;27;43411;-56
2022/10/07 02:02:23;;;;;;;0.82;0.73;;;19.80;62.50;;;;;;5116157;27;44017;-57
2022/10/07 02:05:05;;;;;;;2.22;1.00;;;19.80;62.60;;;;;;5095286;27;43497;-57
2022/10/07 02:07:41;;;;;;;2.05;1.10;;;19.80;62.50;;;;;;5108483;27;43339;-56
2022/10/07 02:10:23;;;;;;;1.88;1.02;;;19.80;62.60;;;;;;5089920;27;43538;-57
2022/10/07 02:13:12;;;;;;;2.83;1.17;;;19.80;62.50;;;;;;5090192;27;44699;-57
2022/10/07 02:16:09;;;;;;;2.95;1.27;;;19.80;62.60;;;;;;5088989;27;43616;-57
2022/10/07 02:18:40;;;;;;;1.55;0.90;;;19.80;62.50;;;;;;5056007;27;43668;-57
2022/10/07 02:21:09;;;;;;;1.27;0.98;;;19.80;62.60;;;;;;5109267;27;43375;-57
2022/10/07 02:23:38;;;;;;;1.27;1.08;;;19.80;62.60;;;;;;5107360;27;43936;-57
2022/10/07 02:26:12;;;;;;;2.17;1.00;;;19.80;62.60;;;;;;5090040;27;43976;-57
2022/10/07 02:28:42;;;;;;;2.58;1.23;;;19.80;62.60;;;;;;5090574;27;43951;-57
2022/10/07 02:31:16;;;;;;;1.17;1.02;;;19.80;62.60;;;;;;5092001;27;43530;-57
2022/10/07 02:33:46;;;;;;;1.70;1.13;;;19.80;62.60;;;;;;5089695;27;44075;-57
2022/10/07 02:36:21;;;;;;;1.40;1.20;;;19.80;62.60;;;;;;5071798;27;43403;-57
2022/10/07 02:38:48;;;;;;;1.42;1.05;;;19.80;62.60;;;;;;5111451;27;43449;-57
2022/10/07 02:41:32;;;;;;;1.45;1.10;;;19.70;62.60;;;;;;5092818;27;43632;-57
2022/10/07 02:44:13;;;;;;;1.00;0.90;;;19.70;62.60;;;;;;5104786;27;43686;-57
2022/10/07 02:47:02;;;;;;;0.90;0.90;;;19.70;62.50;;;;;;5092230;27;43802;-57
2022/10/07 02:49:35;;;;;;;1.67;1.00;;;19.70;62.50;;;;;;5096000;27;43572;-56
2022/10/07 02:52:09;;;;;;;1.50;1.08;;;19.70;62.60;;;;;;5089247;27;43434;-57
2022/10/07 02:54:42;;;;;;;1.45;1.10;;;19.70;62.60;;;;;;5089416;27;44058;-57
2022/10/07 02:57:13;;;;;;;1.77;1.02;;;19.70;62.60;;;;;;5107809;27;43402;-57
2022/10/07 02:59:41;;;;;;;1.65;0.90;;;19.60;62.50;;;;;;5089521;27;43439;-57
2022/10/07 03:02:15;;;;;;;1.35;1.15;;;19.70;62.60;;;;;;5090781;27;43953;-57
2022/10/07 03:04:43;;;;;;;2.60;1.00;;;19.70;62.60;;;;;;5090003;27;44233;-57
2022/10/07 03:07:12;;;;;;;1.33;1.10;;;19.70;62.60;;;;;;5108011;27;43488;-57
2022/10/07 03:09:41;;;;;;;1.67;0.90;;;19.70;62.60;;;;;;5089338;27;43422;-57
2022/10/07 03:12:11;;;;;;;1.40;1.05;;;19.60;62.60;;;;;;5091736;27;43431;-57
2022/10/07 03:14:40;;;;;;;1.65;1.05;;;19.60;62.50;;;;;;5089564;27;43821;-56
2022/10/07 03:17:08;;;;;;;1.65;1.50;;;19.70;62.60;;;;;;5088859;27;43960;-56
2022/10/07 03:19:36;;;;;;;2.05;1.27;;;19.60;62.50;;;;;;5099509;27;43372;-56
2022/10/07 03:22:04;;;;;;;2.40;1.08;;;19.60;62.60;;;;;;5092883;27;43496;-56
2022/10/07 03:24:33;;;;;;;1.73;1.13;;;19.60;62.60;;;;;;5088772;27;44771;-56
2022/10/07 03:27:01;;;;;;;1.33;1.00;;;19.60;62.60;;;;;;5088485;27;44022;-56
2022/10/07 03:29:31;;;;;;;1.17;0.88;;;19.60;62.60;;;;;;5088442;27;43449;-57
2022/10/07 03:31:59;;;;;;;2.92;1.33;;;19.60;62.60;;;;;;5092976;27;43466;-57
2022/10/07 03:34:27;;;;;;;1.27;1.17;;;19.60;62.60;;;;;;5097321;27;43906;-57
2022/10/07 03:36:55;;;;;;;1.20;0.90;;;19.60;62.70;;;;;;5107206;27;43414;-57
2022/10/07 03:39:22;;;;;;;1.98;1.20;;;19.60;62.60;;;;;;5107291;27;43416;-57
2022/10/07 03:41:50;;;;;;;2.60;1.08;;;19.60;62.60;;;;;;5111048;27;43638;-56
2022/10/07 03:44:18;;;;;;;1.40;1.00;;;19.60;62.70;;;;;;5084993;27;44820;-57
2022/10/07 03:46:50;;;;;;;1.45;1.20;;;19.60;62.70;;;;;;5084448;27;43445;-57
2022/10/07 03:49:20;;;;;;;1.75;1.02;;;19.60;62.60;;;;;;5085652;27;43466;-57
2022/10/07 03:51:47;;;;;;;1.90;1.10;;;19.60;62.70;;;;;;5098281;27;43594;-57
2022/10/07 03:54:15;;;;;;;1.60;1.10;;;19.60;62.70;;;;;;5086149;27;44795;-57
2022/10/07 03:56:43;;;;;;;1.25;1.10;;;19.60;62.60;;;;;;5089914;27;43972;-57
2022/10/07 03:59:10;;;;;;;1.73;1.13;;;19.60;62.70;;;;;;5087613;27;43519;-57
2022/10/07 04:01:38;;;;;;;1.00;0.88;;;19.50;62.60;;;;;;5086981;27;43418;-56
2022/10/07 04:04:08;;;;;;;2.63;1.25;;;19.60;62.70;;;;;;5085413;27;44636;-56
2022/10/07 04:06:37;;;;;;;1.48;1.10;;;19.60;62.70;;;;;;5084476;27;44087;-57
2022/10/07 04:09:12;;;;;;;1.88;1.10;;;19.60;62.70;;;;;;5086963;27;43411;-56
2022/10/07 04:11:42;;;;;;;2.70;1.20;;;19.50;62.60;;;;;;5085872;27;43523;-56
2022/10/07 04:14:10;;;;;;;1.42;1.00;;;19.60;62.70;;;;;;5085548;27;44964;-56
2022/10/07 04:16:40;;;;;;;1.40;1.10;;;19.50;62.60;;;;;;5083868;27;43660;-57
2022/10/07 04:19:10;;;;;;;1.30;1.20;;;19.50;62.60;;;;;;5092853;27;43449;-56
2022/10/07 04:21:37;;;;;;;1.50;1.10;;;19.50;62.70;;;;;;5084009;27;43623;-56
2022/10/07 04:24:04;;;;;;;1.52;1.10;;;19.50;62.60;;;;;;5085790;27;44765;-57
2022/10/07 04:26:32;;;;;;;1.95;1.02;;;19.50;62.70;;;;;;5084830;27;43763;-57
2022/10/07 04:29:01;;;;;;;1.88;1.40;;;19.50;62.60;;;;;;5098145;27;43487;-56
2022/10/07 04:31:29;;;;;;;2.35;1.20;;;19.50;62.60;;;;;;5093985;27;43633;-57
2022/10/07 04:34:01;;;;;;;1.55;1.00;;;19.50;62.70;;;;;;5085339;27;44157;-57
2022/10/07 04:36:33;;;;;;;1.60;1.08;;;19.50;62.70;;;;;;5084642;27;43686;-57
2022/10/07 04:39:08;;;;;;;1.33;1.02;;;19.50;62.70;;;;;;5086813;27;43490;-57
2022/10/07 04:41:40;;;;;;;1.73;1.10;;;19.50;62.70;;;;;;5089240;27;43454;-57
2022/10/07 04:44:13;;;;;;;2.58;1.40;;;19.40;62.60;;;;;;5095978;27;43784;-57
2022/10/07 04:46:48;;;;;;;1.95;1.25;;;19.50;62.70;;;;;;5087446;27;43487;-57
2022/10/07 04:49:17;;;;;;;1.02;0.93;;;19.40;62.60;;;;;;5084487;27;43401;-57
2022/10/07 04:51:46;;;;;;;1.13;1.02;;;19.40;62.70;;;;;;5084204;27;43506;-57
2022/10/07 04:54:13;;;;;;;1.20;1.05;;;19.40;62.60;;;;;;5084947;27;43896;-57
2022/10/07 04:56:48;;;;;;;1.85;1.27;;;19.40;62.70;;;;;;5097044;27;43641;-57
2022/10/07 04:59:19;;;;;;;1.00;0.90;;;19.40;62.70;;;;;;5084286;27;43413;-57
2022/10/07 05:01:51;;;;;;;2.25;0.95;;;19.40;62.70;;;;;;5084962;27;43523;-57
2022/10/07 05:04:20;;;;;;;1.52;1.38;;;19.40;62.70;;;;;;5097934;27;43885;-57
2022/10/07 05:06:48;;;;;;;2.10;1.13;;;19.40;62.70;;;;;;5092407;27;43503;-57
2022/10/07 05:09:16;;;;;;;1.73;0.98;;;19.40;62.70;;;;;;5102826;27;43379;-57
2022/10/07 05:11:47;;;;;;;1.23;1.10;;;19.40;62.70;;;;;;5091255;27;43482;-57
2022/10/07 05:14:20;;;;;;;1.88;1.20;;;19.40;62.70;;;;;;5091503;27;44106;-57
2022/10/07 05:16:50;;;;;;;2.25;1.13;;;19.40;62.70;;;;;;5094580;27;44017;-57
2022/10/07 05:19:20;;;;;;;2.22;1.27;;;19.40;62.70;;;;;;5102371;27;43395;-57
2022/10/07 05:21:48;;;;;;;1.73;1.20;;;19.40;62.70;;;;;;5092124;27;43516;-57
2022/10/07 05:24:15;;;;;;;1.65;1.17;;;19.40;62.70;;;;;;5093160;27;44115;-57
2022/10/07 05:26:43;;;;;;;2.20;1.10;;;19.40;62.70;;;;;;5095020;27;43522;-57
2022/10/07 05:29:10;;;;;;;2.08;1.27;;;19.40;62.70;;;;;;5103977;27;43465;-57
2022/10/07 05:31:44;;;;;;;1.95;1.17;;;19.40;62.80;;;;;;5092791;27;43486;-59
2022/10/07 05:34:15;;;;;;;1.50;1.30;;;19.40;62.70;;;;;;5092749;27;44562;-57
2022/10/07 05:36:43;;;;;;;1.30;1.20;;;19.40;62.80;;;;;;5098791;27;43748;-56
2022/10/07 05:39:11;;;;;;;1.83;1.40;;;19.40;62.70;;;;;;5088892;27;43494;-57
2022/10/07 05:41:48;;;;;;;1.48;1.30;;;19.40;62.80;;;;;;5094366;27;43521;-57
2022/10/07 05:44:20;;;;;;;;;;;19.40;62.80;;;;;;5095809;27;44026;-57
2022/10/07 05:46:50;;;;;;;1.27;1.17;;;19.30;62.70;;;;;;5101292;27;43424;-57
2022/10/07 05:49:18;;;;;;;1.95;1.45;;;19.30;62.80;;;;;;5090791;27;43445;-57
2022/10/07 05:51:45;;;;;;;2.50;1.40;;;19.30;62.80;;;;;;5094288;27;43422;-56
2022/10/07 05:54:13;;;;;;;2.15;1.30;;;19.30;62.80;;;;;;5091056;27;43791;-57
2022/10/07 05:56:43;;;;;;;2.20;1.30;;;19.40;62.80;;;;;;5102836;27;43610;-57
2022/10/07 05:59:12;;;;;;;1.48;1.20;;;19.30;62.70;;;;;;5092934;27;43479;-57
2022/10/07 06:01:42;;;;;;;1.80;1.30;;;19.30;62.70;;;;;;5093154;27;43412;-57
2022/10/07 06:04:15;;;;;;;2.72;1.40;;;19.30;62.70;;;;;;5092422;27;43927;-57
2022/10/07 06:06:45;;;;;;;1.42;1.25;;;19.30;62.70;;;;;;5099461;27;43965;-57
2022/10/07 06:14:52;;;;;;;2.47;1.35;;;19.30;62.80;;;;;;5093968;27;43908;-57
2022/10/07 06:17:19;;;;;;;1.92;1.30;;;19.30;62.90;;;;;;5100040;27;43421;-57
2022/10/07 06:19:49;;;;;;;2.08;1.30;;;19.30;62.90;;;;;;5097212;27;43446;-56
2022/10/07 06:22:18;;;;;;;1.17;1.05;;;19.30;62.80;;;;;;5091583;27;43627;-56
2022/10/07 06:24:46;;;;;;;1.30;1.20;;;19.30;62.80;;;;;;5098112;27;44036;-57
2022/10/07 06:27:14;;;;;;;2.28;1.65;;;19.30;62.90;;;;;;5099122;27;43468;-57
2022/10/07 06:29:43;;;;;;;2.38;1.45;;;19.30;62.80;;;;;;5085858;27;43443;-57
2022/10/07 06:32:11;;;;;;;2.67;1.40;;;19.30;62.90;;;;;;5093128;27;43646;-57
2022/10/07 06:34:40;;;;;;;2.65;1.30;;;19.30;62.80;;;;;;5081760;27;43907;-58
2022/10/07 06:37:08;;;;;;;1.58;1.30;;;19.20;62.80;;;;;;5100222;27;43480;-57
2022/10/07 06:39:35;;;;;;;3.70;1.30;;;19.30;62.90;;;;;;5092850;27;43442;-57
2022/10/07 06:42:03;;;;;;;1.63;1.20;;;19.20;62.80;;;;;;5098411;27;43587;-57
2022/10/07 06:44:37;;;;;;;1.42;1.27;;;19.30;62.90;;;;;;5107687;27;43817;-57
2022/10/07 06:47:07;;;;;;;1.97;1.43;;;19.30;62.90;;;;;;5090059;27;43496;-57
2022/10/07 06:49:39;;;;;;;2.05;1.40;;;19.20;62.90;;;;;;5091225;27;43461;-57
2022/10/07 06:52:07;;;;;;;2.00;1.40;;;19.20;62.90;;;;;;5101025;27;43588;-57
2022/10/07 06:54:35;;;;;;;3.35;1.30;;;19.20;62.90;;;;;;5104003;27;44970;-57
2022/10/07 06:57:02;;;;;;;3.63;1.42;;;19.20;62.90;;;;;;5107596;27;43500;-57
2022/10/07 06:59:53;;;;;;;2.38;1.45;;;19.30;63.00;;;;;;5097674;27;43429;-57
2022/10/07 07:02:24;;;;;;;1.83;1.38;;;19.20;62.90;;;;;;5102582;27;43603;-57
2022/10/07 07:04:54;;;;;;;1.75;1.52;;;19.20;63.00;;;;;;5099229;27;44025;-57
2022/10/07 07:07:25;;;;;;;1.73;1.33;;;19.20;62.90;;;;;;5089592;27;43831;-57
2022/10/07 07:09:53;;;;;;;2.17;1.40;;;19.20;62.90;;;;;;5096463;27;43474;-57
2022/10/07 07:12:24;;;;;;;1.88;1.20;;;19.20;62.90;;;;;;5101624;27;43557;-57
2022/10/07 07:14:53;;;;;;;2.30;1.50;;;19.20;62.90;;;;;;5100251;27;44240;-59
2022/10/07 07:17:21;;;;;;;3.63;1.60;;;19.20;62.90;;;;;;5092421;27;43367;-58
2022/10/07 07:19:48;;;;;;;2.50;1.35;;;19.20;63.00;;;;;;5101656;27;43478;-59
2022/10/07 07:22:20;;;;;;;1.40;1.30;;;19.20;62.90;;;;;;5098501;27;43597;-59
2022/10/07 07:24:53;;;;;;;2.67;1.50;;;19.20;63.10;;;;;;5085986;27;44001;-59
2022/10/07 07:27:20;;;;;;;4.18;2.80;;;19.30;63.20;;;;;;5081481;27;43459;-59
2022/10/07 07:29:49;;;;;;;4.50;3.88;;;19.20;63.10;;;;;;5096323;27;43450;-59
2022/10/07 07:32:16;;;;;;;4.45;3.47;;;19.30;63.20;;;;;;5114792;27;43596;-58
2022/10/07 07:34:45;;;;;;;4.75;3.17;;;19.30;63.10;;;;;;5094106;27;43884;-59
2022/10/07 07:37:18;;;;;;;5.43;3.67;;;19.40;63.20;;;;;;5114120;27;43427;-58
2022/10/07 07:39:50;;;;;;;3.75;3.00;;;19.40;63.20;;;;;;5077220;27;43495;-58
2022/10/07 07:42:17;;;;;;;4.22;3.13;;;19.50;63.10;;;;;;5114188;27;43976;-58
2022/10/07 07:44:46;;;;;;;4.53;3.30;;;19.60;63.10;;;;;;5088582;27;44291;-58
2022/10/07 07:47:17;;;;;;;3.90;3.17;;;19.70;62.90;;;;;;5076174;27;43566;-58
2022/10/07 07:49:47;;;;;;;3.72;2.95;;;19.70;62.80;;;;;;5082857;27;43459;-58
2022/10/07 07:52:21;;;;;;;3.63;3.10;;;19.80;62.70;;;;;;5074911;27;43512;-59
2022/10/07 07:54:50;;;;;;;4.72;3.10;;;19.90;62.60;;;;;;5076797;27;43813;-60
2022/10/07 07:57:18;;;;;;;3.58;2.75;;;19.90;62.60;;;;;;5081625;27;43426;-59
2022/10/07 07:59:46;;;;;;;4.53;3.00;;;20.00;62.70;;;;;;5074972;27;43431;-58
2022/10/07 08:02:15;;;;;;;3.92;2.90;;;20.10;62.90;;;;;;5060437;27;43620;-59
2022/10/07 08:04:47;;;;;;;5.85;3.05;;;20.20;62.90;;;;;;5078668;27;43887;-59
2022/10/07 08:07:15;;;;;;;4.45;2.70;;;20.30;62.70;;;;;;5081448;27;43458;-60
2022/10/07 08:09:45;;;;;;;4.60;2.65;;;20.40;62.50;;;;;;5077677;27;43549;-60
2022/10/07 08:12:13;;;;;;;3.17;2.25;;;20.50;62.40;;;;;;5075724;27;43656;-59
2022/10/07 08:14:42;;;;;;;3.33;2.63;;;20.60;62.20;;;;;;5064584;27;44078;-59
2022/10/07 08:17:11;;;;;;;7.53;2.72;;;20.80;62.00;;;;;;5072562;27;43699;-59
2022/10/07 08:19:38;;;;;;;4.22;2.35;;;20.90;61.80;;;;;;5060741;27;43422;-59
2022/10/07 08:22:07;;;;;;;3.67;2.30;;;21.00;61.60;;;;;;5071923;27;43650;-58
2022/10/07 08:24:36;;;;;;;3.53;2.20;;;21.20;61.60;;;;;;5071448;27;44996;-61
2022/10/07 08:27:04;;;;;;;2.38;1.85;;;21.30;61.10;;;;;;5056285;27;43550;-60
2022/10/07 08:29:31;;;;;;;5.45;2.33;;;21.50;61.00;;;;;;5077268;27;43468;-59
2022/10/07 08:31:58;;;;;;;5.13;2.22;;;21.50;60.80;;;;;;5096163;27;43561;-59
2022/10/07 08:34:26;;;;;;;4.07;1.90;;;21.60;60.60;;;;;;5096320;27;45114;-59
2022/10/07 08:36:55;;;;;;;3.40;2.00;;;21.70;60.50;;;;;;5094591;27;43469;-60
2022/10/07 08:39:23;;;;;;;4.93;2.45;;;21.80;60.20;;;;;;5092666;27;43486;-59
2022/10/07 08:42:17;;;;;;;4.35;1.92;;;21.90;60.00;;;;;;5100000;27;43600;-59
2022/10/07 08:44:49;;;;;;;3.42;2.20;;;21.90;60.00;;;;;;5108183;27;44082;-59
2022/10/07 08:47:35;;;;;;;3.20;2.15;;;22.00;60.00;;;;;;5096364;27;43428;-59
2022/10/07 08:50:30;;;;;;;3.40;2.00;;;22.00;60.00;;;;;;5123271;27;43368;-59
2022/10/07 08:53:02;;;;;;;2.90;1.98;;;22.00;59.80;;;;;;5124521;27;44151;-59
2022/10/07 08:55:41;;;;;;;4.03;2.22;;;22.10;59.80;;;;;;5115578;27;45004;-59
2022/10/07 08:58:23;;;;;;;3.67;2.00;;;22.10;59.70;;;;;;5114537;27;43566;-59
2022/10/07 09:01:00;;;;;;;3.88;2.03;;;22.10;59.60;;;;;;5096847;27;43495;-59
2022/10/07 09:03:52;;;;;;;4.40;2.03;;;22.20;59.60;;;;;;5122700;27;43544;-59
2022/10/07 09:06:38;;;;;;;3.35;2.20;;;22.20;59.60;;;;;;5111224;27;45004;-59
2022/10/07 09:09:16;;;;;;;3.63;1.60;;;22.20;59.50;;;;;;5123442;27;43447;-58
2022/10/07 09:11:47;;;;;;;5.10;1.98;;;22.20;59.50;;;;;;5109919;27;43340;-60
2022/10/07 09:14:26;;;;;;;4.70;2.00;;;22.30;59.60;;;;;;5115711;27;43564;-59
2022/10/07 09:16:59;;;;;;;3.83;1.95;;;22.30;59.70;;;;;;5114451;27;43918;-59
2022/10/07 09:19:33;;;;;;;3.08;2.13;;;22.30;59.60;;;;;;5118760;27;43413;-59
2022/10/07 09:22:10;;;;;;;3.00;2.13;;;22.30;59.50;;;;;;5121637;27;43432;-59
2022/10/07 09:24:38;;;;;;;2.67;1.98;;;22.30;59.60;;;;;;5101671;27;43526;-59
2022/10/07 09:27:14;;;;;;;3.42;1.85;;;22.40;59.60;;;;;;5123244;27;43563;-59
2022/10/07 09:29:42;;;;;;;3.50;2.10;;;22.40;59.60;;;;;;5081642;27;43471;-59
2022/10/07 09:32:13;;;;;;;3.35;1.80;;;22.40;59.70;;;;;;5117484;27;43485;-59
2022/10/07 09:34:40;;;;;;;3.03;1.88;;;22.40;59.50;;;;;;5116605;27;43366;-59
2022/10/07 09:37:13;;;;;;;3.08;2.08;;;22.40;59.60;;;;;;5097378;27;44053;-59
2022/10/07 09:39:42;;;;;;;4.00;1.73;;;22.40;59.70;;;;;;5119670;27;43473;-59
2022/10/07 09:42:42;;;;;;;4.38;1.80;;;22.40;59.70;;;;;;5120426;27;43541;-59
2022/10/07 09:45:33;;;;;;;3.50;1.75;;;22.40;59.70;;;;;;5115989;27;43419;-59
2022/10/07 09:48:06;;;;;;;3.50;1.70;;;22.40;59.60;;;;;;5117629;27;43897;-59
2022/10/07 09:50:36;;;;;;;4.93;2.00;;;22.40;59.60;;;;;;5098837;27;43655;-59
2022/10/07 09:53:15;;;;;;;2.97;1.80;;;22.30;59.60;;;;;;5117724;27;43565;-59
2022/10/07 09:55:43;;;;;;;3.40;2.08;;;22.30;59.70;;;;;;5118849;27;43512;-59
2022/10/07 09:58:23;;;;;;;3.05;1.60;;;22.30;59.90;;;;;;5121789;27;44071;-59
2022/10/07 10:00:53;;;;;;;5.32;2.50;;;22.30;59.80;;;;;;5110382;27;43515;-59
2022/10/07 10:03:29;;;;;;;4.97;2.20;;;22.30;59.90;;;;;;5100076;27;43995;-59
2022/10/07 10:06:02;;;;;;;4.65;2.10;;;22.30;59.90;;;;;;5102274;27;43498;-59
2022/10/07 10:08:53;;;;;;;3.38;1.90;;;22.30;60.00;;;;;;5116076;27;43881;-58
2022/10/07 10:11:27;;;;;;;;;;;22.20;59.90;;;;;;5116338;27;43375;-59
2022/10/07 10:13:54;;;;;;;3.65;1.73;;;22.20;60.00;;;;;;5117414;27;43469;-59
2022/10/07 10:16:34;;;;;;;4.53;1.95;;;22.20;60.20;;;;;;5115323;27;43458;-59
2022/10/07 10:19:07;;;;;;;3.70;1.97;;;22.20;60.20;;;;;;5118638;27;44744;-59
2022/10/07 10:21:40;;;;;;;3.60;1.95;;;22.20;60.20;;;;;;5116048;27;43985;-59
2022/10/07 10:24:14;;;;;;;2.88;1.55;;;22.30;60.30;;;;;;5113176;27;43462;-59
2022/10/07 10:27:05;;;;;;;4.03;1.67;;;22.30;60.30;;;;;;5117039;27;43442;-59
2022/10/07 10:29:56;;;;;;;3.33;1.70;;;22.30;60.30;;;;;;5080614;27;43766;-59
2022/10/07 10:32:33;;;;;;;3.65;1.88;;;22.30;60.30;;;;;;5119491;27;43454;-59
2022/10/07 10:35:26;;;;;;;3.72;1.70;;;22.30;60.40;;;;;;5080444;27;43443;-59
2022/10/07 10:38:15;;;;;;;3.85;1.80;;;22.30;60.40;;;;;;5106836;27;43494;-59
2022/10/07 10:40:46;;;;;;;2.78;1.70;;;22.30;60.40;;;;;;5119415;27;44039;-59
2022/10/07 10:43:40;;;;;;;2.92;1.65;;;22.30;60.40;;;;;;5117043;27;43403;-58
2022/10/07 10:46:26;;;;;;;4.03;2.10;;;22.30;60.50;;;;;;5098559;27;43421;-59
2022/10/07 10:49:21;;;;;;;3.60;1.67;;;22.30;60.50;;;;;;5097026;27;43546;-58
2022/10/07 10:52:05;;;;;;;3.20;1.63;;;22.30;60.60;;;;;;5090000;27;43607;-58
2022/10/07 10:55:00;;;;;;;3.95;2.00;;;22.30;60.60;;;;;;5095853;27;43436;-59
2022/10/07 10:57:36;;;;;;;3.63;1.92;;;22.30;60.60;;;;;;5063682;28;43400;-58
2022/10/07 11:00:19;;;;;;;2.75;1.80;;;22.20;60.60;;;;;;5070931;27;43462;-58
2022/10/07 11:03:26;;;;;;;1.65;1.50;;;22.20;60.70;;;;;;5073437;27;44010;-58
2022/10/07 11:05:55;;;;;;;5.70;1.75;;;22.20;60.80;;;;;;5043074;27;43793;-58
2022/10/07 11:08:31;;;;;;;3.20;1.70;;;22.20;61.10;;;;;;5090592;27;43952;-59
2022/10/07 11:11:16;;;;;;;3.00;1.63;;;22.10;60.80;;;;;;5093925;27;43408;-58
2022/10/07 11:14:00;;;;;;;3.58;1.90;;;22.10;60.80;;;;;;5077052;27;44696;-57
2022/10/07 11:16:37;;;;;;;2.88;1.73;;;22.10;60.90;;;;;;5088327;27;43458;-58
2022/10/07 11:19:31;;;;;;;2.75;1.40;;;22.10;60.90;;;;;;5099040;27;43501;-58
2022/10/07 11:21:59;;;;;;;4.07;1.98;;;22.10;60.90;;;;;;5088714;27;43405;-58
2022/10/07 11:24:35;;;;;;;2.47;1.80;;;22.10;61.00;;;;;;5098363;27;43827;-58
2022/10/07 11:27:13;;;;;;;4.10;1.88;;;22.10;61.00;;;;;;5070366;27;44642;-58
2022/10/07 11:30:14;;;;;;;3.58;1.60;;;22.10;61.00;;;;;;5075176;27;43455;-58
2022/10/07 11:33:00;;;;;;;3.47;1.80;;;22.20;60.90;;;;;;5076141;27;43371;-58
2022/10/07 11:35:35;;;;;;;4.85;1.77;;;22.20;60.90;;;;;;5078842;27;44266;-58
2022/10/07 11:38:08;;;;;;;3.33;1.70;;;22.20;60.80;;;;;;5078142;27;43478;-58
2022/10/07 11:40:42;;;;;;;4.20;1.60;;;22.20;60.80;;;;;;5078782;27;43474;-59
2022/10/07 11:43:18;;;;;;;2.47;1.52;;;22.20;60.70;;;;;;5060983;27;43400;-58
2022/10/07 11:45:52;;;;;;;3.15;1.60;;;22.20;60.70;;;;;;5112884;27;43740;-59
2022/10/07 11:48:32;;;;;;;3.03;1.60;;;22.20;60.70;;;;;;5114080;27;43460;-59
2022/10/07 11:51:03;;;;;;;3.05;1.70;;;22.20;60.70;;;;;;5096956;27;43362;-58
2022/10/07 11:53:35;;;;;;;2.60;1.70;;;22.20;60.70;;;;;;5115347;27;43374;-59
2022/10/07 11:56:19;;;;;;;3.08;1.70;;;22.20;60.80;;;;;;5094349;27;43960;-58
2022/10/07 11:58:57;;;;;;;2.08;1.60;;;22.20;60.80;;;;;;5087748;27;43546;-59
2022/10/07 12:01:27;;;;;;;4.13;1.98;;;22.20;60.90;;;;;;5081749;27;43454;-59
2022/10/07 12:04:01;;;;;;;4.40;1.80;;;22.20;60.90;;;;;;5111654;27;43544;-59
2022/10/07 12:06:28;;;;;;;4.65;1.88;;;22.10;60.80;;;;;;5080212;27;45335;-59
2022/10/07 12:08:56;;;;;;;2.33;1.52;;;22.10;60.80;;;;;;5099709;27;43448;-59
2022/10/07 12:11:35;;;;;;;3.90;1.63;;;22.10;61.00;;;;;;5115010;27;43485;-59
2022/10/07 12:14:28;;;;;;;3.75;1.77;;;22.10;60.90;;;;;;5077298;27;43455;-58
2022/10/07 12:16:56;;;;;;;3.75;1.77;;;22.10;61.00;;;;;;5121680;27;45025;-58
2022/10/07 12:19:23;;;;;;;3.28;1.58;;;22.10;61.10;;;;;;5106137;27;43479;-58
2022/10/07 12:22:03;;;;;;;1.98;1.27;;;22.10;61.70;;;;;;5080837;27;43505;-58
2022/10/07 12:24:35;;;;;;;3.15;1.50;;;22.10;61.10;;;;;;5098887;27;43472;-59
2022/10/07 12:27:20;;;;;;;3.83;1.60;;;22.10;61.10;;;;;;5104199;27;45188;-59
2022/10/07 12:30:01;;;;;;;3.28;1.30;;;22.10;61.10;;;;;;5099764;27;43796;-59
2022/10/07 12:32:59;;;;;;;;;;;22.00;61.10;;;;;;5115920;27;43950;-58
2022/10/07 12:35:33;;;;;;;2.38;1.38;;;22.10;61.20;;;;;;5091035;27;43563;-58
2022/10/07 12:38:14;;;;;;;4.03;1.50;;;22.00;61.30;;;;;;5116254;27;44080;-59
2022/10/07 12:40:43;;;;;;;;;;;22.00;61.20;;;;;;5105528;27;43684;-59
2022/10/07 12:43:36;;;;;;;4.55;1.67;;;22.00;61.30;;;;;;5120968;27;43400;-58
2022/10/07 12:46:13;;;;;;;3.83;1.60;;;22.00;61.30;;;;;;5125322;27;43970;-59
2022/10/07 12:48:47;;;;;;;3.03;1.70;;;22.00;61.30;;;;;;5101769;27;44967;-59
2022/10/07 12:51:25;;;;;;;4.32;1.65;;;22.00;61.30;;;;;;5119726;27;43444;-58
2022/10/07 12:53:54;;;;;;;3.25;1.52;;;22.00;61.30;;;;;;5117986;27;43446;-58
2022/10/07 12:56:26;;;;;;;3.97;1.48;;;22.00;61.40;;;;;;5124147;27;43455;-59
2022/10/07 12:59:49;;;;;;;3.22;1.50;;;22.00;61.30;;;;;;5091446;27;43930;-58
2022/10/07 13:02:47;;;;;;;3.03;1.60;;;22.00;61.30;;;;;;5119827;27;43448;-59
2022/10/07 13:05:30;;;;;;;5.70;2.05;;;22.00;61.30;;;;;;5109422;27;43470;-59
2022/10/07 13:08:16;;;;;;;4.00;1.58;;;22.00;61.50;;;;;;5096145;27;43408;-59
2022/10/07 13:11:21;;;;;;;2.85;1.52;;;22.00;61.40;;;;;;5109971;27;43619;-59
2022/10/07 13:14:08;;;;;;;3.00;1.40;;;22.00;61.40;;;;;;5121558;27;43495;-59
2022/10/07 13:16:55;;;;;;;4.43;1.50;;;22.00;61.50;;;;;;5090789;27;43548;-59
2022/10/07 13:19:39;;;;;;;3.08;1.45;;;22.00;61.50;;;;;;5071107;27;43505;-59
2022/10/07 13:22:10;;;;;;;2.80;1.60;;;22.00;61.50;;;;;;5098808;27;43936;-59
2022/10/07 13:24:46;;;;;;;3.22;1.48;;;22.00;61.50;;;;;;5119049;27;43530;-59
2022/10/07 13:27:26;;;;;;;4.72;1.60;;;22.00;61.50;;;;;;5113134;27;43442;-59
2022/10/07 13:29:56;;;;;;;2.20;1.40;;;22.00;61.50;;;;;;5119556;27;43445;-59